メインページ
METAR-TAF:

METAR-TAF

空港 :

ラハイナ, ハワイ州, アメリカ合衆国

緯度: 21-01N, 経度: 156-38W, 海抜: 40m

現時点の気象観測

当レポートは6時間48分前の03:50(UTC)に作成
北/北東の風 12kt
気温 24°C
湿度 83%
気圧 1014 hPa
視程: 24.1km
高度2000ftの雲は散在している
高度4500ftの雲は散在している
高度15000ftの千切れ雲あり

METAR: PHJH 160350Z COR 02012KT 15SM SCT020 SCT045 BKN150 24/21 A2995 RMK LAST

時間: 00:38 (10:38 UTC)

予報

当レポートは10時間53分前の23:45(UTC)に作成
予報は16日の 00時(UTC)から 16日の 24時(UTC)まで有効
北東の風 12kt、最大19ktの突風を伴う
視程: 10km
高度4000ftの雲は散在している
高度25000ftの千切れ雲あり
16日の 0500時(UTC)から
北東の風 11kt
視程: 10km
高度2500ftの雲は散在している
高度4000ftの雲は散在している
高度15000ftの千切れ雲あり
近辺でにわか雨
16日の 2000時(UTC)から
北東の風 17kt、最大23ktの突風を伴う
視程: 10km
高度4000ftの雲は散在している
高度25000ftの雲は散在している

TAF: PHJH 152345Z 1600/1624 05012G19KT P6SM SCT040 BKN250 FM160500 05011KT P6SM VCSH SCT025 SCT040 BKN150 FM162000 05017G23KT P6SM SCT040 SCT250 AMD NOT SKED AFT 160400

4,000以上の空港の気象観測と天気予報(METAR報とTAF報)

利用可能な観測所は地図上に黄色い丸と赤い丸で示す。

丸の上にカーソルを重ねると観測所名を参照できる。

次にクリックすると気象観測と天気予報を参照できる。

マップの切り替え:黒色「×」印の緑ボタンをクリックして拡大、「-」印の緑ボタンをクリックして縮小、緑色の三角印をクリックして隣りの地図に切り替え


METAR-TAF: